createdAt,value
2019-03-09T00:01:10.996Z,8.33
2019-03-09T00:03:42.013Z,8.05
2019-03-09T00:06:13.626Z,13.70
2019-03-09T00:08:44.711Z,8.18
2019-03-09T00:11:15.653Z,9.23
2019-03-09T00:13:46.590Z,6.75
2019-03-09T00:16:18.520Z,6.75
2019-03-09T00:18:52.240Z,6.55
2019-03-09T00:21:23.201Z,8.00
2019-03-09T00:23:58.404Z,8.65
2019-03-09T00:26:46.704Z,9.10
2019-03-09T00:29:19.466Z,8.35
2019-03-09T00:31:52.050Z,8.78
2019-03-09T00:34:22.900Z,5.47
2019-03-09T00:36:53.830Z,11.40
2019-03-09T00:39:24.761Z,8.00
2019-03-09T00:41:55.705Z,19.45
2019-03-09T00:44:26.649Z,11.78
2019-03-09T00:46:57.573Z,7.72
2019-03-09T00:49:28.727Z,5.28
2019-03-09T00:51:59.619Z,13.55
2019-03-09T00:54:30.608Z,10.58
2019-03-09T00:57:01.843Z,9.75
2019-03-09T00:59:33.661Z,10.40
2019-03-09T01:02:04.558Z,9.73
2019-03-09T01:04:35.485Z,13.70
2019-03-09T01:07:06.464Z,9.88
2019-03-09T01:09:37.469Z,12.82
2019-03-09T01:12:08.446Z,7.00
2019-03-09T01:14:39.465Z,6.53
2019-03-09T01:17:10.440Z,5.60
2019-03-09T01:19:41.426Z,8.30
2019-03-09T01:22:12.409Z,8.78
2019-03-09T01:24:43.261Z,6.85
2019-03-09T01:27:14.297Z,5.45
2019-03-09T01:29:45.291Z,7.40
2019-03-09T01:32:16.272Z,8.65
2019-03-09T01:34:47.187Z,12.60
2019-03-09T01:37:18.090Z,10.10
2019-03-09T01:39:49.038Z,9.65
2019-03-09T01:42:20.099Z,8.70
2019-03-09T01:44:51.056Z,8.90
2019-03-09T01:47:21.962Z,11.05
2019-03-09T01:49:52.824Z,11.78
2019-03-09T01:52:23.732Z,8.98
2019-03-09T01:54:54.696Z,7.08
2019-03-09T01:57:25.717Z,11.22
2019-03-09T01:59:56.566Z,6.25
2019-03-09T02:02:27.420Z,11.10
2019-03-09T02:04:58.350Z,10.20
2019-03-09T02:07:29.262Z,8.43
2019-03-09T02:10:00.401Z,10.60
2019-03-09T02:12:31.350Z,9.48
2019-03-09T02:15:02.308Z,11.43
2019-03-09T02:17:34.670Z,14.30
2019-03-09T02:20:08.337Z,8.13
2019-03-09T02:22:39.275Z,11.28
2019-03-09T02:25:11.394Z,11.40
2019-03-09T02:27:42.318Z,12.95
2019-03-09T02:30:19.681Z,12.60
2019-03-09T02:32:50.638Z,11.22
2019-03-09T02:35:21.592Z,6.28
2019-03-09T02:37:53.652Z,12.98
2019-03-09T02:40:26.239Z,11.40
2019-03-09T02:42:57.261Z,8.50
2019-03-09T02:45:29.899Z,8.90
2019-03-09T02:48:00.887Z,9.87
2019-03-09T02:50:31.822Z,8.98
2019-03-09T02:53:02.757Z,9.80
2019-03-09T02:55:33.709Z,7.03
2019-03-09T02:58:04.673Z,9.05
2019-03-09T03:00:37.285Z,8.95
2019-03-09T03:03:09.333Z,9.53
2019-03-09T03:05:40.322Z,6.90
2019-03-09T03:08:11.367Z,8.15
2019-03-09T03:10:42.317Z,9.35
2019-03-09T03:13:13.254Z,7.53
2019-03-09T03:15:44.111Z,7.08
2019-03-09T03:18:15.025Z,6.22
2019-03-09T03:20:45.981Z,7.95
2019-03-09T03:23:17.128Z,11.20
2019-03-09T03:25:48.083Z,14.50
2019-03-09T03:28:18.998Z,8.05
2019-03-09T03:30:49.925Z,7.17
2019-03-09T03:33:20.933Z,10.90
2019-03-09T03:35:51.961Z,10.48
2019-03-09T03:38:22.940Z,7.90
2019-03-09T03:40:53.807Z,9.58
2019-03-09T03:43:24.834Z,8.60
2019-03-09T03:45:55.709Z,8.55
2019-03-09T03:48:26.614Z,7.50
2019-03-09T03:50:57.597Z,6.45
2019-03-09T03:53:28.645Z,10.58
2019-03-09T03:55:59.699Z,8.78
2019-03-09T03:58:30.564Z,11.22
2019-03-09T04:01:01.511Z,10.60
2019-03-09T04:03:32.450Z,13.68
2019-03-09T04:06:03.308Z,8.63
2019-03-09T04:08:34.240Z,5.83
2019-03-09T04:11:06.144Z,10.43
2019-03-09T04:13:37.331Z,13.22
2019-03-09T04:16:08.282Z,8.58
2019-03-09T04:18:39.200Z,12.98
2019-03-09T04:21:10.058Z,13.03
2019-03-09T04:23:41.058Z,11.20
2019-03-09T04:26:12.140Z,12.07
2019-03-09T04:28:43.056Z,10.95
2019-03-09T04:31:13.953Z,12.10
2019-03-09T04:33:44.944Z,11.43
2019-03-09T04:36:15.812Z,14.40
2019-03-09T04:38:46.671Z,13.22
2019-03-09T04:41:17.672Z,13.48
2019-03-09T04:43:48.704Z,10.03
2019-03-09T04:46:19.588Z,11.97
2019-03-09T04:48:50.579Z,9.85
2019-03-09T04:51:21.450Z,8.40
2019-03-09T04:53:52.329Z,14.13
2019-03-09T04:56:23.297Z,10.90
2019-03-09T04:58:54.252Z,8.78
2019-03-09T05:01:25.126Z,11.93
2019-03-09T05:03:59.380Z,15.13
2019-03-09T05:06:30.332Z,16.07
2019-03-09T05:09:07.247Z,15.55
2019-03-09T05:11:38.106Z,13.15
2019-03-09T05:14:10.038Z,16.02
2019-03-09T05:16:41.055Z,17.17
2019-03-09T05:19:11.976Z,16.48
2019-03-09T05:21:42.912Z,12.78
2019-03-09T05:24:13.957Z,15.78
2019-03-09T05:26:45.118Z,19.98
2019-03-09T05:29:16.148Z,20.45
2019-03-09T05:31:47.127Z,14.40
2019-03-09T05:34:18.268Z,17.17
2019-03-09T05:36:49.298Z,14.87
2019-03-09T05:39:20.221Z,18.12
2019-03-09T05:41:51.090Z,14.63
2019-03-09T05:44:22.088Z,18.82
2019-03-09T05:46:52.996Z,24.32
2019-03-09T05:49:23.918Z,22.32
2019-03-09T05:52:19.546Z,23.40
2019-03-09T05:54:50.543Z,26.48
2019-03-09T05:57:21.499Z,23.90
2019-03-09T05:59:52.566Z,18.57
2019-03-09T06:02:23.479Z,24.25
2019-03-09T06:04:54.391Z,24.40
2019-03-09T06:07:25.323Z,19.77
2019-03-09T06:09:56.263Z,15.05
2019-03-09T06:12:27.211Z,18.32
2019-03-09T06:14:58.137Z,17.17
2019-03-09T06:17:29.101Z,14.25
2019-03-09T06:20:00.512Z,22.52
2019-03-09T06:22:31.627Z,20.12
2019-03-09T06:25:02.624Z,22.77
2019-03-09T06:27:33.493Z,17.45
2019-03-09T06:30:04.765Z,23.92
2019-03-09T06:32:38.911Z,11.97
2019-03-09T06:35:15.269Z,20.02
2019-03-09T06:38:07.645Z,19.15
2019-03-09T06:40:38.666Z,24.32
2019-03-09T06:43:09.616Z,18.70
2019-03-09T06:45:40.559Z,21.65
2019-03-09T06:48:11.486Z,27.62
2019-03-09T06:50:42.486Z,26.27
2019-03-09T06:53:13.521Z,24.27
2019-03-09T06:55:44.507Z,17.00
2019-03-09T06:58:15.480Z,23.45
2019-03-09T07:00:46.542Z,25.52
2019-03-09T07:03:17.454Z,20.88
2019-03-09T07:05:48.387Z,14.03
2019-03-09T07:08:19.411Z,27.00
2019-03-09T07:10:50.430Z,20.65
2019-03-09T07:13:21.436Z,17.80
2019-03-09T07:15:52.422Z,26.27
2019-03-09T07:18:23.427Z,24.07
2019-03-09T07:20:54.459Z,27.02
2019-03-09T07:23:25.466Z,22.32
2019-03-09T07:25:56.395Z,19.70
2019-03-09T07:28:27.286Z,24.18
2019-03-09T07:30:58.280Z,35.05
2019-03-09T07:33:29.220Z,27.60
2019-03-09T07:36:00.427Z,21.75
2019-03-09T07:38:31.401Z,26.00
2019-03-09T07:41:02.819Z,26.93
2019-03-09T07:43:34.424Z,17.25
2019-03-09T07:46:05.552Z,23.20
2019-03-09T07:48:36.850Z,22.73
2019-03-09T07:51:08.040Z,17.57
2019-03-09T07:53:39.099Z,30.70
2019-03-09T07:56:10.118Z,23.98
2019-03-09T07:58:41.176Z,32.48
2019-03-09T08:01:12.322Z,25.50
2019-03-09T08:03:43.451Z,21.95
2019-03-09T08:06:14.574Z,27.25
2019-03-09T08:08:45.627Z,31.30
2019-03-09T08:11:16.596Z,36.20
2019-03-09T08:13:49.331Z,29.20
2019-03-09T08:16:20.401Z,27.90
2019-03-09T08:18:51.385Z,29.67
2019-03-09T08:21:22.483Z,38.25
2019-03-09T08:23:53.538Z,42.75
2019-03-09T08:26:24.586Z,30.77
2019-03-09T08:28:55.724Z,46.58
2019-03-09T08:31:26.777Z,43.10
2019-03-09T08:33:57.911Z,44.60
2019-03-09T08:36:28.948Z,29.02
2019-03-09T08:39:00.114Z,31.87
2019-03-09T08:41:31.323Z,35.73
2019-03-09T08:44:02.390Z,28.42
2019-03-09T08:46:33.430Z,27.40
2019-03-09T08:49:04.468Z,26.15
2019-03-09T08:51:35.703Z,29.35
2019-03-09T08:54:06.733Z,26.25
2019-03-09T08:56:37.751Z,32.60
2019-03-09T08:59:08.767Z,47.53
2019-03-09T09:01:40.406Z,29.50
2019-03-09T09:04:11.401Z,31.17
2019-03-09T09:06:42.469Z,25.95
2019-03-09T09:09:13.653Z,31.73
2019-03-09T09:11:44.630Z,32.42
2019-03-09T09:14:15.744Z,32.15
2019-03-09T09:16:46.837Z,35.90
2019-03-09T09:19:17.926Z,31.45
2019-03-09T09:21:48.896Z,31.52
2019-03-09T09:24:20.142Z,32.20
2019-03-09T09:26:51.305Z,32.63
2019-03-09T09:29:22.395Z,50.98
2019-03-09T09:31:53.501Z,60.30
2019-03-09T09:34:24.585Z,66.95
2019-03-09T09:36:55.629Z,53.65
2019-03-09T09:39:27.383Z,54.75
2019-03-09T09:41:59.668Z,51.88
2019-03-09T09:44:30.902Z,34.53
2019-03-09T09:47:01.995Z,35.68
2019-03-09T09:49:33.151Z,38.28
2019-03-09T09:52:04.295Z,32.55
2019-03-09T09:54:35.359Z,38.13
2019-03-09T09:57:06.477Z,35.35
2019-03-09T09:59:37.632Z,40.20
2019-03-09T10:02:08.651Z,34.10
2019-03-09T10:04:39.707Z,29.92
2019-03-09T10:07:10.686Z,34.53
2019-03-09T10:09:41.793Z,34.88
2019-03-09T10:12:12.855Z,40.98
2019-03-09T10:14:44.230Z,42.08
2019-03-09T10:17:15.328Z,33.50
2019-03-09T10:19:46.994Z,32.80
2019-03-09T10:22:18.424Z,32.15
2019-03-09T10:24:49.825Z,64.95
2019-03-09T10:27:21.615Z,36.35
2019-03-09T10:29:53.103Z,29.27
2019-03-09T10:32:24.330Z,36.35
2019-03-09T10:34:55.342Z,30.08
2019-03-09T10:37:26.336Z,38.02
2019-03-09T10:39:57.525Z,40.28
2019-03-09T10:42:28.525Z,36.20
2019-03-09T10:44:59.763Z,37.65
2019-03-09T10:47:34.349Z,41.08
2019-03-09T10:50:11.061Z,54.48
2019-03-09T10:52:42.564Z,48.92
2019-03-09T10:55:25.948Z,56.60
2019-03-09T10:57:57.418Z,65.27
2019-03-09T11:00:31.838Z,46.18
2019-03-09T11:03:02.949Z,50.58
2019-03-09T11:05:34.129Z,62.62
2019-03-09T11:08:05.505Z,51.80
2019-03-09T11:10:36.629Z,58.55
2019-03-09T11:13:07.857Z,57.45
2019-03-09T11:15:39.115Z,53.90
2019-03-09T11:18:10.306Z,48.20
2019-03-09T11:20:41.997Z,48.60
2019-03-09T11:23:13.281Z,46.48
2019-03-09T11:25:44.521Z,50.00
2019-03-09T11:28:15.606Z,48.60
2019-03-09T11:30:46.627Z,52.15
2019-03-09T11:33:17.702Z,51.25
2019-03-09T11:35:48.784Z,50.00
2019-03-09T11:38:19.953Z,50.05
2019-03-09T11:40:57.358Z,52.83
2019-03-09T11:43:23.930Z,54.63
2019-03-09T11:45:55.058Z,58.05
2019-03-09T11:48:26.321Z,59.65
2019-03-09T11:50:57.362Z,45.23
2019-03-09T11:53:28.546Z,45.05
2019-03-09T11:55:59.625Z,42.45
2019-03-09T11:58:30.686Z,44.95
2019-03-09T12:01:01.787Z,53.02
2019-03-09T12:03:32.965Z,47.30
2019-03-09T12:06:03.967Z,48.13
2019-03-09T12:08:35.886Z,45.23
2019-03-09T12:11:08.043Z,45.95
2019-03-09T12:13:39.120Z,45.70
2019-03-09T12:16:10.217Z,48.35
2019-03-09T12:18:41.752Z,50.73
2019-03-09T12:21:12.816Z,64.70
2019-03-09T12:23:43.996Z,58.20
2019-03-09T12:26:15.453Z,47.70
2019-03-09T12:28:46.694Z,46.63
2019-03-09T12:31:18.274Z,50.63
2019-03-09T12:33:49.882Z,50.25
2019-03-09T12:36:21.169Z,46.20
2019-03-09T12:38:52.362Z,47.45
2019-03-09T12:41:23.435Z,49.15
2019-03-09T12:43:54.545Z,52.30
2019-03-09T12:46:25.756Z,44.70
2019-03-09T12:48:56.810Z,52.08
2019-03-09T12:51:27.864Z,48.38
2019-03-09T12:53:59.020Z,55.05
2019-03-09T12:56:30.067Z,43.65
2019-03-09T12:59:01.108Z,43.68
2019-03-09T13:01:32.413Z,46.15
2019-03-09T13:04:03.495Z,51.15
2019-03-09T13:06:34.545Z,48.08
2019-03-09T13:09:05.573Z,48.90
2019-03-09T13:11:38.049Z,53.40
2019-03-09T13:14:09.256Z,48.87
2019-03-09T13:16:40.271Z,56.58
2019-03-09T13:19:11.518Z,59.03
2019-03-09T13:21:42.639Z,64.30
2019-03-09T13:24:14.848Z,53.80
2019-03-09T13:26:45.837Z,52.13
2019-03-09T13:29:17.020Z,57.08
2019-03-09T13:31:48.113Z,61.18
2019-03-09T13:34:19.737Z,61.15
2019-03-09T13:36:50.823Z,53.60
2019-03-09T13:39:22.537Z,69.17
2019-03-09T13:41:53.618Z,74.17
2019-03-09T13:44:24.756Z,81.40
2019-03-09T13:46:55.806Z,72.03
2019-03-09T13:49:26.966Z,79.85
2019-03-09T13:51:58.086Z,86.67
2019-03-09T13:54:29.125Z,74.20
2019-03-09T13:57:00.294Z,67.62
2019-03-09T13:59:31.325Z,73.15
2019-03-09T14:02:02.451Z,65.67
2019-03-09T14:04:33.653Z,68.55
2019-03-09T14:07:04.801Z,61.85
2019-03-09T14:09:35.897Z,63.55
2019-03-09T14:12:07.032Z,67.85
2019-03-09T14:14:38.255Z,71.57
2019-03-09T14:17:09.325Z,64.05
2019-03-09T14:19:40.471Z,58.45
2019-03-09T14:22:11.524Z,60.75
2019-03-09T14:24:42.611Z,66.67
2019-03-09T14:27:15.166Z,64.10
2019-03-09T14:29:46.518Z,65.83
2019-03-09T14:32:17.690Z,67.37
2019-03-09T14:34:49.113Z,57.43
2019-03-09T14:37:20.226Z,70.08
2019-03-09T14:39:51.428Z,62.70
2019-03-09T14:42:22.562Z,64.67
2019-03-09T14:44:53.792Z,63.58
2019-03-09T14:47:24.957Z,66.02
2019-03-09T14:49:56.192Z,65.80
2019-03-09T14:52:27.170Z,63.87
2019-03-09T14:54:58.271Z,70.60
2019-03-09T14:57:29.367Z,71.92
2019-03-09T15:00:00.490Z,71.95
2019-03-09T15:02:31.662Z,72.03
2019-03-09T15:05:02.713Z,70.28
2019-03-09T15:07:33.730Z,77.32
2019-03-09T15:10:06.061Z,69.03
2019-03-09T15:12:37.230Z,68.40
2019-03-09T15:15:15.344Z,66.85
2019-03-09T15:17:46.360Z,65.30
2019-03-09T15:20:17.679Z,71.62
2019-03-09T15:22:48.867Z,72.22
2019-03-09T15:25:20.466Z,70.22
2019-03-09T15:27:51.664Z,65.17
2019-03-09T15:30:23.001Z,69.35
2019-03-09T15:32:54.047Z,68.92
2019-03-09T15:35:25.376Z,65.25
2019-03-09T15:37:56.544Z,63.40
2019-03-09T15:40:28.642Z,64.20
2019-03-09T15:42:59.869Z,119.35
2019-03-09T15:45:30.899Z,115.20
2019-03-09T15:48:01.973Z,123.80
2019-03-09T15:50:33.472Z,219.95
2019-03-09T15:53:04.543Z,258.65
2019-03-09T15:55:35.731Z,287.88
2019-03-09T15:58:06.843Z,310.77
2019-03-09T16:00:37.978Z,254.32
2019-03-09T16:03:09.154Z,175.22
2019-03-09T16:05:40.436Z,179.75
2019-03-09T16:08:12.644Z,202.40
2019-03-09T16:10:43.768Z,197.57
2019-03-09T16:13:15.025Z,155.67
2019-03-09T16:15:46.322Z,149.30
2019-03-09T16:18:17.447Z,186.18
2019-03-09T16:20:48.980Z,166.88
2019-03-09T16:23:20.111Z,153.42
2019-03-09T16:25:51.636Z,133.37
2019-03-09T16:28:22.753Z,141.40
2019-03-09T16:30:54.130Z,116.93
2019-03-09T16:33:25.247Z,109.97
2019-03-09T16:35:56.337Z,105.12
2019-03-09T16:38:27.490Z,106.83
2019-03-09T16:40:58.695Z,95.67
2019-03-09T16:43:29.709Z,94.85
2019-03-09T16:46:00.749Z,95.80
2019-03-09T16:48:31.822Z,89.75
2019-03-09T16:51:02.938Z,84.22
2019-03-09T16:53:34.005Z,90.83
2019-03-09T16:56:05.027Z,96.92
2019-03-09T16:58:36.096Z,91.00
2019-03-09T17:01:07.366Z,83.82
2019-03-09T17:03:38.450Z,88.10
2019-03-09T17:06:09.756Z,88.60
2019-03-09T17:08:40.934Z,89.17
2019-03-09T17:11:12.044Z,96.78
2019-03-09T17:13:43.268Z,98.33
2019-03-09T17:16:14.449Z,102.32
2019-03-09T17:18:46.832Z,101.55
2019-03-09T17:21:18.004Z,126.12
2019-03-09T17:23:49.102Z,145.00
2019-03-09T17:26:20.345Z,142.62
2019-03-09T17:28:51.529Z,121.62
2019-03-09T17:31:22.689Z,105.17
2019-03-09T17:33:53.940Z,119.67
2019-03-09T17:36:24.999Z,117.45
2019-03-09T17:38:56.243Z,122.78
2019-03-09T17:41:27.503Z,137.40
2019-03-09T17:43:58.727Z,147.78
2019-03-09T17:46:29.843Z,175.47
2019-03-09T17:49:01.055Z,144.05
2019-03-09T17:51:32.180Z,133.12
2019-03-09T17:54:03.272Z,142.43
2019-03-09T17:56:34.520Z,153.65
2019-03-09T17:59:05.670Z,258.75
2019-03-09T18:01:36.747Z,264.42
2019-03-09T18:04:07.751Z,262.68
2019-03-09T18:06:39.552Z,193.05
2019-03-09T18:09:10.837Z,171.98
2019-03-09T18:11:42.080Z,164.03
2019-03-09T18:14:13.310Z,152.55
2019-03-09T18:16:52.507Z,140.77
2019-03-09T18:19:17.375Z,140.73
2019-03-09T18:21:48.428Z,127.45
2019-03-09T18:24:19.650Z,141.68
2019-03-09T18:26:50.824Z,145.57
2019-03-09T18:29:22.177Z,145.57
2019-03-09T18:31:54.169Z,150.90
2019-03-09T18:34:25.461Z,146.53
2019-03-09T18:36:56.514Z,147.55
2019-03-09T18:39:27.700Z,146.32
2019-03-09T18:41:58.801Z,153.20
2019-03-09T18:44:29.815Z,151.75
2019-03-09T18:47:00.817Z,150.95
2019-03-09T18:49:32.104Z,139.50
2019-03-09T18:52:03.338Z,161.75
2019-03-09T18:54:34.562Z,144.28
2019-03-09T18:57:06.065Z,152.20
2019-03-09T18:59:37.154Z,149.50
2019-03-09T19:02:08.259Z,163.82
2019-03-09T19:04:39.610Z,166.05
2019-03-09T19:07:10.753Z,180.00
2019-03-09T19:09:42.037Z,185.22
2019-03-09T19:12:13.208Z,183.60
2019-03-09T19:14:44.438Z,171.00
2019-03-09T19:17:15.421Z,166.37
2019-03-09T19:19:46.611Z,189.18
2019-03-09T19:22:17.714Z,170.62
2019-03-09T19:24:48.802Z,164.70
2019-03-09T19:27:19.998Z,170.07
2019-03-09T19:29:51.021Z,167.72
2019-03-09T19:32:22.193Z,186.18
2019-03-09T19:34:53.277Z,168.50
2019-03-09T19:37:24.243Z,162.05
2019-03-09T19:39:55.322Z,177.47
2019-03-09T19:42:26.508Z,245.05
2019-03-09T19:44:57.743Z,237.55
2019-03-09T19:47:30.051Z,193.50
2019-03-09T19:50:01.231Z,178.93
2019-03-09T19:52:32.368Z,174.00
2019-03-09T19:55:03.580Z,180.00
2019-03-09T19:57:34.655Z,190.22
2019-03-09T20:00:11.272Z,187.75
2019-03-09T20:02:42.309Z,177.27
2019-03-09T20:05:13.356Z,187.60
2019-03-09T20:07:44.337Z,215.32
2019-03-09T20:10:16.731Z,203.40
2019-03-09T20:12:47.791Z,195.72
2019-03-09T20:15:20.055Z,191.28
2019-03-09T20:17:51.057Z,185.95
2019-03-09T20:20:22.212Z,172.82
2019-03-09T20:22:53.182Z,180.05
2019-03-09T20:25:24.193Z,208.80
2019-03-09T20:27:55.234Z,196.78
2019-03-09T20:30:26.290Z,185.70
2019-03-09T20:32:57.435Z,202.78
2019-03-09T20:35:28.508Z,228.65
2019-03-09T20:38:00.707Z,204.10
2019-03-09T20:40:31.824Z,202.80
2019-03-09T20:43:03.115Z,218.12
2019-03-09T20:45:34.219Z,210.53
2019-03-09T20:48:05.325Z,205.85
2019-03-09T20:50:36.500Z,182.53
2019-03-09T20:53:07.606Z,181.43
2019-03-09T20:55:39.235Z,179.75
2019-03-09T20:58:10.406Z,207.50
2019-03-09T21:00:41.483Z,170.25
2019-03-09T21:03:12.595Z,168.43
2019-03-09T21:05:43.625Z,157.70
2019-03-09T21:08:14.691Z,153.62
2019-03-09T21:10:45.695Z,160.95
2019-03-09T21:13:16.758Z,171.70
2019-03-09T21:15:47.855Z,179.25
2019-03-09T21:18:19.036Z,168.90
2019-03-09T21:20:50.054Z,172.75
2019-03-09T21:23:21.291Z,171.22
2019-03-09T21:25:52.437Z,190.38
2019-03-09T21:28:24.585Z,188.20
2019-03-09T21:30:55.595Z,172.22
2019-03-09T21:33:26.720Z,167.50
2019-03-09T21:35:57.697Z,151.25
2019-03-09T21:38:29.297Z,136.30
2019-03-09T21:41:00.288Z,141.43
2019-03-09T21:43:31.255Z,145.17
2019-03-09T21:46:02.388Z,147.35
2019-03-09T21:48:33.502Z,148.85
2019-03-09T21:51:04.531Z,146.18
2019-03-09T21:53:35.512Z,139.60
2019-03-09T21:56:06.536Z,139.43
2019-03-09T21:58:37.661Z,148.13
2019-03-09T22:01:08.866Z,138.52
2019-03-09T22:03:39.908Z,153.62
2019-03-09T22:06:11.023Z,150.60
2019-03-09T22:08:42.120Z,151.12
2019-03-09T22:11:13.151Z,162.25
2019-03-09T22:13:44.377Z,152.62
2019-03-09T22:16:15.500Z,155.70
2019-03-09T22:18:46.562Z,157.47
2019-03-09T22:21:17.713Z,151.07
2019-03-09T22:23:48.777Z,135.55
2019-03-09T22:26:20.368Z,136.80
2019-03-09T22:28:51.375Z,134.27
2019-03-09T22:31:22.470Z,131.87
2019-03-09T22:33:53.560Z,114.08
2019-03-09T22:36:24.656Z,116.77
2019-03-09T22:38:55.754Z,126.20
2019-03-09T22:41:26.834Z,123.58
2019-03-09T22:43:57.931Z,120.95
2019-03-09T22:46:29.031Z,145.38
2019-03-09T22:49:00.006Z,162.92
2019-03-09T22:51:31.104Z,178.57
2019-03-09T22:54:02.199Z,187.65
2019-03-09T22:56:33.290Z,172.02
2019-03-09T22:59:04.397Z,173.32
2019-03-09T23:01:35.652Z,155.00
2019-03-09T23:04:06.822Z,155.07
2019-03-09T23:06:39.058Z,150.90
2019-03-09T23:09:10.101Z,154.90
2019-03-09T23:11:41.381Z,140.95
2019-03-09T23:14:12.491Z,149.07
2019-03-09T23:16:43.573Z,140.60
2019-03-09T23:19:14.787Z,134.97
2019-03-09T23:21:45.847Z,183.37
2019-03-09T23:24:16.862Z,167.85
2019-03-09T23:26:48.075Z,162.37
2019-03-09T23:29:19.249Z,149.95
2019-03-09T23:31:50.432Z,148.60
2019-03-09T23:34:21.408Z,139.20
2019-03-09T23:36:52.436Z,141.30
2019-03-09T23:39:23.422Z,131.43
2019-03-09T23:41:54.495Z,140.45
2019-03-09T23:44:26.545Z,115.35
2019-03-09T23:46:57.773Z,124.47
2019-03-09T23:49:28.807Z,129.25
2019-03-09T23:51:59.838Z,130.63
2019-03-09T23:54:32.020Z,121.53
2019-03-09T23:57:03.107Z,130.30
2019-03-09T23:59:34.081Z,122.85
